Time;durP1;ratioP1;P1;durP2;ratioP2;P2;SDS_P1;SDS_P2;PMS_P1;PMS_P2;Temp;Humidity;BMP_temperature;BMP_pressure;BME280_temperature;BME280_humidity;BME280_pressure;Samples;Min_cycle;Max_cycle;Signal;HPM_P1;HPM_P2
2023/09/04 00:01:03;;;;;;;2.58;2.38;;;14.10;99.90;;;;;;5133785;27;20039;-79
2023/09/04 00:03:29;;;;;;;2.55;2.38;;;14.10;99.90;;;;;;5133114;27;20076;-78
2023/09/04 00:05:55;;;;;;;2.70;2.50;;;14.00;99.90;;;;;;5133430;27;20043;-79
2023/09/04 00:08:21;;;;;;;2.53;2.33;;;14.00;99.90;;;;;;5133695;27;20086;-79
2023/09/04 00:10:47;;;;;;;2.20;2.00;;;14.00;99.90;;;;;;5133963;27;20045;-78
2023/09/04 00:13:13;;;;;;;3.75;2.25;;;14.00;99.90;;;;;;5115154;28;20035;-79
2023/09/04 00:15:39;;;;;;;2.65;2.45;;;14.00;99.90;;;;;;5133539;28;20455;-80
2023/09/04 00:18:07;;;;;;;2.63;2.42;;;14.00;99.90;;;;;;5133144;28;20043;-78
2023/09/04 00:20:32;;;;;;;2.95;2.70;;;14.00;99.90;;;;;;5133108;28;20078;-79
2023/09/04 00:22:58;;;;;;;3.60;3.20;;;13.90;99.90;;;;;;5133329;28;20043;-79
2023/09/04 00:25:24;;;;;;;3.00;2.80;;;13.80;99.90;;;;;;5133347;28;20054;-78
2023/09/04 00:27:49;;;;;;;3.00;2.80;;;13.80;99.90;;;;;;5133065;28;20050;-79
2023/09/04 00:30:15;;;;;;;3.13;2.92;;;13.80;99.90;;;;;;5133360;28;20093;-79
2023/09/04 00:32:41;;;;;;;3.15;2.88;;;13.80;99.90;;;;;;5133600;28;20411;-79
2023/09/04 00:35:07;;;;;;;2.90;2.70;;;13.80;99.90;;;;;;5115337;28;20051;-79
2023/09/04 00:37:33;;;;;;;1.70;1.60;;;13.80;99.90;;;;;;5133465;28;20516;-80
2023/09/04 00:39:59;;;;;;;2.05;1.95;;;13.80;99.90;;;;;;5133165;28;20051;-79
2023/09/04 00:42:29;;;;;;;1.95;1.80;;;13.70;99.90;;;;;;5133131;28;20039;-78
2023/09/04 00:44:55;;;;;;;2.22;2.03;;;13.70;99.90;;;;;;5133669;28;20099;-79
2023/09/04 00:47:23;;;;;;;3.00;2.28;;;13.00;99.90;;;;;;5133005;28;20441;-78
2023/09/04 00:49:51;;;;;;;2.45;2.25;;;13.70;99.90;;;;;;5133048;28;20088;-78
2023/09/04 00:52:17;;;;;;;2.15;2.03;;;13.70;99.90;;;;;;5114959;28;20047;-79
2023/09/04 00:54:43;;;;;;;23.92;4.28;;;13.60;99.90;;;;;;5132922;28;20101;-80
2023/09/04 00:57:12;;;;;;;3.03;2.72;;;13.60;99.90;;;;;;5133112;28;20127;-79
2023/09/04 00:59:40;;;;;;;2.38;2.15;;;13.50;99.90;;;;;;5132921;28;20046;-78
2023/09/04 01:02:06;;;;;;;2.60;2.40;;;13.50;99.90;;;;;;5114969;28;20047;-79
2023/09/04 01:04:31;;;;;;;2.13;1.98;;;13.50;99.90;;;;;;5133001;28;20091;-80
2023/09/04 01:06:58;;;;;;;2.30;2.10;;;13.50;99.90;;;;;;5132949;28;20047;-79
2023/09/04 01:09:24;;;;;;;2.47;2.28;;;13.40;99.90;;;;;;5132670;28;20047;-78
2023/09/04 01:12:04;;;;;;;3.00;2.70;;;13.40;99.90;;;;;;5133145;28;20039;-78
2023/09/04 01:14:32;;;;;;;2.65;2.45;;;13.50;99.90;;;;;;5133065;28;20096;-78
2023/09/04 01:16:58;;;;;;;4.07;3.58;;;13.50;99.90;;;;;;5134211;27;20043;-78
2023/09/04 01:19:24;;;;;;;43.45;8.55;;;13.50;99.90;;;;;;5136954;27;20047;-79
2023/09/04 01:21:50;;;;;;;19.42;5.40;;;13.60;99.90;;;;;;5118338;27;20142;-79
2023/09/04 01:24:16;;;;;;;3.30;3.00;;;13.50;99.90;;;;;;5118897;27;20047;-79
2023/09/04 01:27:06;;;;;;;3.95;3.65;;;13.50;99.90;;;;;;5136511;27;20130;-79
2023/09/04 01:29:56;;;;;;;2.95;2.65;;;13.40;99.90;;;;;;5136420;27;20035;-79
2023/09/04 01:32:37;;;;;;;2.83;2.63;;;13.30;99.90;;;;;;5136618;27;20451;-79
2023/09/04 01:35:05;;;;;;;2.03;1.92;;;13.30;99.90;;;;;;5136928;27;20109;-79
2023/09/04 01:37:31;;;;;;;2.40;2.20;;;13.20;99.90;;;;;;5136695;27;20073;-78
2023/09/04 01:39:57;;;;;;;2.88;2.67;;;13.20;99.90;;;;;;5136242;27;20498;-79
2023/09/04 01:42:23;;;;;;;2.60;2.40;;;13.20;99.90;;;;;;5136116;27;20103;-78
2023/09/04 01:44:49;;;;;;;2.83;2.63;;;13.20;99.90;;;;;;5136243;27;20039;-78
2023/09/04 01:47:14;;;;;;;2.85;2.65;;;13.10;99.90;;;;;;5117875;27;20342;-78
2023/09/04 01:49:40;;;;;;;3.55;3.25;;;13.10;99.90;;;;;;5136574;27;20074;-78
2023/09/04 01:52:06;;;;;;;4.57;3.25;;;13.20;99.90;;;;;;5135879;27;20083;-78
2023/09/04 01:54:31;;;;;;;3.25;2.95;;;13.10;99.90;;;;;;5135676;27;20043;-79
2023/09/04 01:56:57;;;;;;;2.70;2.50;;;13.10;99.90;;;;;;5136089;27;20043;-79
2023/09/04 01:59:23;;;;;;;2.85;2.55;;;13.00;99.90;;;;;;5135743;27;20146;-79
2023/09/04 02:01:49;;;;;;;2.58;2.38;;;13.00;99.90;;;;;;5135639;27;20043;-80
2023/09/04 02:04:15;;;;;;;2.55;2.35;;;12.90;99.90;;;;;;5135638;27;20053;-79
2023/09/04 02:06:41;;;;;;;2.95;2.75;;;12.90;99.90;;;;;;5101045;27;20050;-81
2023/09/04 02:09:07;;;;;;;2.90;2.65;;;12.90;99.90;;;;;;5117835;27;20058;-78
2023/09/04 02:11:32;;;;;;;2.70;2.50;;;12.90;99.90;;;;;;5135461;27;20039;-78
2023/09/04 02:13:58;;;;;;;2.83;2.63;;;12.90;99.90;;;;;;5135753;27;20047;-78
2023/09/04 02:16:24;;;;;;;3.72;2.70;;;12.90;99.90;;;;;;5135357;27;20039;-78
2023/09/04 02:18:50;;;;;;;3.28;2.97;;;12.80;99.90;;;;;;5136102;27;20043;-78
2023/09/04 02:21:17;;;;;;;3.03;2.83;;;12.80;99.90;;;;;;5135823;27;20137;-79
2023/09/04 02:23:42;;;;;;;2.88;2.67;;;12.90;99.90;;;;;;5135250;27;20043;-80
2023/09/04 02:26:08;;;;;;;3.03;2.72;;;12.90;99.90;;;;;;5135549;27;20128;-78
2023/09/04 02:28:34;;;;;;;2.78;2.58;;;12.90;99.90;;;;;;5134192;27;20057;-78
2023/09/04 02:31:06;;;;;;;3.97;2.80;;;12.90;99.90;;;;;;5135119;27;20401;-78
2023/09/04 02:33:32;;;;;;;3.00;2.70;;;12.80;99.90;;;;;;5117725;27;20078;-78
2023/09/04 02:35:58;;;;;;;2.72;2.53;;;12.80;99.90;;;;;;5135292;27;20454;-78
2023/09/04 02:38:23;;;;;;;2.60;2.40;;;12.80;99.90;;;;;;5135305;27;20486;-79
2023/09/04 02:40:49;;;;;;;3.13;2.80;;;12.80;99.90;;;;;;5135084;27;20035;-80
2023/09/04 02:43:15;;;;;;;3.53;2.85;;;12.70;99.90;;;;;;5116414;27;20065;-78
2023/09/04 02:45:40;;;;;;;2.92;2.72;;;12.70;99.90;;;;;;5134834;27;20043;-80
2023/09/04 02:48:06;;;;;;;3.78;3.30;;;12.60;99.90;;;;;;5116765;27;20175;-80
2023/09/04 02:50:33;;;;;;;3.53;3.17;;;12.70;99.90;;;;;;5134642;27;20043;-80
2023/09/04 02:52:58;;;;;;;4.30;3.85;;;12.70;99.90;;;;;;5134578;27;20050;-78
2023/09/04 02:55:24;;;;;;;3.63;3.30;;;12.60;99.90;;;;;;5135092;27;20051;-79
2023/09/04 02:57:49;;;;;;;4.40;4.05;;;12.60;99.90;;;;;;5134636;27;20047;-79
2023/09/04 03:00:15;;;;;;;3.60;3.30;;;12.50;99.90;;;;;;5099207;27;20134;-80
2023/09/04 03:02:41;;;;;;;3.97;3.58;;;12.50;99.90;;;;;;5134997;27;20432;-78
2023/09/04 03:05:08;;;;;;;4.75;3.15;;;12.50;99.90;;;;;;5134613;27;20046;-78
2023/09/04 03:07:34;;;;;;;4.22;3.25;;;12.50;99.90;;;;;;5116524;27;20087;-78
2023/09/04 03:10:00;;;;;;;4.10;3.70;;;12.50;99.90;;;;;;5134345;27;20046;-79
2023/09/04 03:12:27;;;;;;;3.97;3.67;;;12.40;99.90;;;;;;5116340;27;20356;-79
2023/09/04 03:14:56;;;;;;;3.50;3.20;;;12.50;99.90;;;;;;5134554;27;20114;-78
2023/09/04 03:17:23;;;;;;;3.45;3.15;;;12.50;99.90;;;;;;5134552;27;20106;-78
2023/09/04 03:19:49;;;;;;;3.85;3.55;;;12.50;99.90;;;;;;5134294;27;20076;-78
2023/09/04 03:22:15;;;;;;;3.78;3.25;;;12.40;99.90;;;;;;5134444;27;20115;-79
2023/09/04 03:24:41;;;;;;;3.92;3.50;;;12.40;99.90;;;;;;5134262;27;20580;-78
2023/09/04 03:27:06;;;;;;;4.10;3.67;;;12.40;99.90;;;;;;5134490;27;20444;-78
2023/09/04 03:29:32;;;;;;;3.38;3.00;;;12.30;99.90;;;;;;5134072;27;20039;-78
2023/09/04 03:31:58;;;;;;;5.18;3.42;;;12.30;99.90;;;;;;5134148;27;20085;-78
2023/09/04 03:34:23;;;;;;;3.75;3.45;;;12.30;99.90;;;;;;5133804;27;20039;-79
2023/09/04 03:36:49;;;;;;;3.55;3.22;;;12.30;99.90;;;;;;5133516;27;20100;-78
2023/09/04 03:39:15;;;;;;;3.83;3.42;;;12.30;99.90;;;;;;5134087;27;20058;-80
2023/09/04 03:41:40;;;;;;;4.68;3.05;;;12.20;99.90;;;;;;5134231;27;20404;-78
2023/09/04 03:44:06;;;;;;;3.42;3.13;;;12.20;99.90;;;;;;5133819;27;20058;-79
2023/09/04 03:46:32;;;;;;;4.22;3.33;;;12.20;99.90;;;;;;5115386;27;20054;-78
2023/09/04 03:48:58;;;;;;;3.38;3.08;;;12.10;99.90;;;;;;5133651;27;20043;-78
2023/09/04 03:51:23;;;;;;;3.38;3.05;;;12.10;99.90;;;;;;5133609;27;20491;-79
2023/09/04 03:53:49;;;;;;;4.72;3.50;;;12.10;99.90;;;;;;5115435;27;20054;-78
2023/09/04 03:56:15;;;;;;;5.05;3.40;;;12.00;99.90;;;;;;5133583;27;20035;-79
2023/09/04 03:58:40;;;;;;;4.07;3.72;;;12.00;99.90;;;;;;5133618;27;20050;-78
2023/09/04 04:01:06;;;;;;;4.45;4.00;;;12.10;99.90;;;;;;5133405;27;20126;-78
2023/09/04 04:03:32;;;;;;;4.47;4.05;;;12.10;99.90;;;;;;5098740;28;20061;-78
2023/09/04 04:05:57;;;;;;;4.70;4.22;;;12.00;99.90;;;;;;5133229;27;20039;-78
2023/09/04 04:08:23;;;;;;;5.72;4.65;;;12.00;99.90;;;;;;5133945;27;20043;-78
2023/09/04 04:10:49;;;;;;;3.88;3.50;;;12.00;99.90;;;;;;5133345;27;20043;-78
2023/09/04 04:13:14;;;;;;;5.25;4.75;;;12.00;99.90;;;;;;5114945;28;20118;-78
2023/09/04 04:15:41;;;;;;;6.10;4.38;;;12.00;99.90;;;;;;5133252;28;20039;-78
2023/09/04 04:18:10;;;;;;;4.53;4.13;;;12.00;99.90;;;;;;5133055;28;20126;-79
2023/09/04 04:20:36;;;;;;;4.85;4.45;;;12.00;99.90;;;;;;5133482;28;20043;-78
2023/09/04 04:23:03;;;;;;;4.43;4.00;;;11.90;99.90;;;;;;5133794;28;20078;-79
2023/09/04 04:25:28;;;;;;;4.60;4.20;;;11.90;99.90;;;;;;5115003;28;20521;-78
2023/09/04 04:27:54;;;;;;;5.20;4.70;;;11.90;99.90;;;;;;5133270;28;20148;-78
2023/09/04 04:30:20;;;;;;;5.00;3.30;;;12.00;99.90;;;;;;5115113;28;20058;-79
2023/09/04 04:32:46;;;;;;;3.92;3.53;;;11.90;99.90;;;;;;5114818;28;20059;-78
2023/09/04 04:35:11;;;;;;;5.72;4.68;;;11.90;99.90;;;;;;5133262;28;20050;-79
2023/09/04 04:37:37;;;;;;;5.53;4.45;;;11.90;99.90;;;;;;5133515;28;20111;-78
2023/09/04 04:40:03;;;;;;;4.10;3.70;;;12.70;99.90;;;;;;5133610;28;20493;-78
2023/09/04 04:42:29;;;;;;;3.33;3.03;;;11.70;99.90;;;;;;5133452;28;20074;-79
2023/09/04 04:44:55;;;;;;;4.32;3.20;;;11.60;99.90;;;;;;5133295;28;20070;-78
2023/09/04 04:47:21;;;;;;;3.50;2.80;;;11.50;99.90;;;;;;5132990;28;20091;-78
2023/09/04 04:49:47;;;;;;;3.63;3.33;;;11.50;99.90;;;;;;5133086;28;20119;-78
2023/09/04 04:52:12;;;;;;;3.13;2.90;;;11.60;99.90;;;;;;5135002;27;20031;-79
2023/09/04 04:54:38;;;;;;;4.82;3.33;;;11.60;99.90;;;;;;5136989;27;20647;-78
2023/09/04 04:57:04;;;;;;;3.42;3.13;;;11.60;99.90;;;;;;5136866;27;20059;-78
2023/09/04 04:59:30;;;;;;;5.13;3.20;;;11.60;99.90;;;;;;5136894;27;20043;-78
2023/09/04 05:01:58;;;;;;;3.03;2.80;;;11.70;99.90;;;;;;5119042;27;20055;-78
2023/09/04 05:04:23;;;;;;;2.70;2.50;;;11.70;99.90;;;;;;5136671;27;20127;-78
2023/09/04 05:06:49;;;;;;;2.88;2.58;;;11.70;99.90;;;;;;5136752;27;20114;-78
2023/09/04 05:09:15;;;;;;;3.03;2.60;;;11.80;99.90;;;;;;5137117;27;20066;-78
2023/09/04 05:11:41;;;;;;;2.50;2.30;;;11.80;99.90;;;;;;5136527;27;20444;-78
2023/09/04 05:14:06;;;;;;;2.42;2.22;;;11.80;99.90;;;;;;5118128;27;20054;-79
2023/09/04 05:16:32;;;;;;;3.97;3.00;;;11.80;99.90;;;;;;5136505;27;20043;-78
2023/09/04 05:18:58;;;;;;;2.67;2.47;;;11.80;99.90;;;;;;5136560;27;20429;-78
2023/09/04 05:21:23;;;;;;;2.30;2.10;;;11.80;99.90;;;;;;5136117;27;20039;-79
2023/09/04 05:23:49;;;;;;;2.85;2.30;;;11.80;99.90;;;;;;5136313;27;20179;-79
2023/09/04 05:26:15;;;;;;;17.08;3.55;;;11.80;99.90;;;;;;5136710;27;20047;-79
2023/09/04 05:28:41;;;;;;;62.10;7.28;;;11.80;99.90;;;;;;5118118;27;20049;-88
2023/09/04 05:31:07;;;;;;;38.25;5.93;;;11.90;99.90;;;;;;5136407;27;20118;-87
2023/09/04 05:33:32;;;;;;;9.90;3.92;;;12.00;99.90;;;;;;5117992;27;20039;-79
2023/09/04 05:35:58;;;;;;;3.80;3.42;;;12.00;99.90;;;;;;5136124;27;20115;-79
2023/09/04 05:38:24;;;;;;;3.80;3.40;;;12.10;99.90;;;;;;5136153;27;20050;-79
2023/09/04 05:40:58;;;;;;;2.60;2.40;;;12.20;99.90;;;;;;5136115;27;20464;-81
2023/09/04 05:43:24;;;;;;;3.13;2.90;;;12.20;99.90;;;;;;5136013;27;20078;-79
2023/09/04 05:45:50;;;;;;;3.42;3.13;;;12.20;99.90;;;;;;5135849;27;20073;-79
2023/09/04 05:48:15;;;;;;;2.85;2.65;;;12.30;99.90;;;;;;5136126;27;20046;-80
2023/09/04 05:50:41;;;;;;;3.25;2.90;;;12.30;99.90;;;;;;5117403;27;20035;-80
2023/09/04 05:53:07;;;;;;;5.68;3.30;;;12.30;99.90;;;;;;5135739;27;20085;-79
2023/09/04 05:55:36;;;;;;;4.05;3.33;;;12.40;99.90;;;;;;5135581;27;20095;-79
2023/09/04 05:58:02;;;;;;;4.43;4.03;;;12.40;99.90;;;;;;5136126;27;20103;-80
2023/09/04 06:00:28;;;;;;;4.55;3.28;;;12.40;99.90;;;;;;5117079;27;20467;-79
2023/09/04 06:02:56;;;;;;;3.78;3.47;;;12.50;99.90;;;;;;5136040;27;20087;-80
2023/09/04 06:05:22;;;;;;;4.45;4.05;;;12.60;99.90;;;;;;5135361;27;20057;-79
2023/09/04 06:07:47;;;;;;;4.88;4.22;;;12.60;99.90;;;;;;5135394;27;20043;-80
2023/09/04 06:10:13;;;;;;;5.88;5.35;;;12.80;99.90;;;;;;5117402;27;20070;-80
2023/09/04 06:12:39;;;;;;;6.47;5.60;;;12.90;99.90;;;;;;5135382;27;20502;-80
2023/09/04 06:15:07;;;;;;;7.88;7.07;;;13.00;99.90;;;;;;5135231;27;20092;-79
2023/09/04 06:17:32;;;;;;;6.40;5.68;;;13.20;99.90;;;;;;5135100;27;20047;-79
2023/09/04 06:19:58;;;;;;;7.20;6.50;;;13.20;99.90;;;;;;5135208;27;20133;-79
2023/09/04 06:22:24;;;;;;;9.75;8.25;;;13.30;99.90;;;;;;5135047;27;20463;-80
2023/09/04 06:24:49;;;;;;;6.80;6.18;;;13.40;99.90;;;;;;5116964;27;20445;-79
2023/09/04 06:27:15;;;;;;;9.43;7.43;;;13.50;99.90;;;;;;5135002;27;20099;-82
2023/09/04 06:29:41;;;;;;;8.55;7.72;;;13.60;99.90;;;;;;5134752;27;20054;-79
2023/09/04 06:32:06;;;;;;;8.60;7.75;;;13.70;99.90;;;;;;5134882;27;20075;-81
2023/09/04 06:34:32;;;;;;;9.20;7.85;;;13.80;99.90;;;;;;5116855;27;20518;-79
2023/09/04 06:36:58;;;;;;;8.77;7.88;;;13.80;99.90;;;;;;5135741;27;20164;-79
2023/09/04 06:39:23;;;;;;;9.23;7.15;;;13.90;99.90;;;;;;5135326;27;20459;-80
2023/09/04 06:41:49;;;;;;;14.15;10.45;;;14.00;99.90;;;;;;5135077;27;20476;-79
2023/09/04 06:44:15;;;;;;;12.02;10.30;;;14.10;99.90;;;;;;5134848;27;20088;-79
2023/09/04 06:46:40;;;;;;;17.25;12.57;;;14.20;99.90;;;;;;5135636;27;20045;-79
2023/09/04 06:49:06;;;;;;;18.23;14.52;;;14.30;99.90;;;;;;5134665;27;20460;-79
2023/09/04 06:51:32;;;;;;;19.45;16.73;;;14.30;99.90;;;;;;5134586;27;20035;-79
2023/09/04 06:53:58;;;;;;;22.75;19.02;;;14.40;99.90;;;;;;5134508;27;20047;-77
2023/09/04 06:56:24;;;;;;;20.73;17.33;;;14.50;99.90;;;;;;5134613;27;20051;-78
2023/09/04 06:58:49;;;;;;;16.92;14.82;;;14.60;99.90;;;;;;5134528;27;20087;-78
2023/09/04 07:01:15;;;;;;;16.75;13.40;;;14.70;99.90;;;;;;5134811;27;20039;-80
2023/09/04 07:03:41;;;;;;;10.90;9.85;;;14.80;99.90;;;;;;5116088;27;20570;-79
2023/09/04 07:06:07;;;;;;;12.25;10.95;;;14.80;99.90;;;;;;5134720;27;20070;-79
2023/09/04 07:08:33;;;;;;;10.73;9.13;;;14.90;99.90;;;;;;5134793;27;20387;-79
2023/09/04 07:10:59;;;;;;;10.23;9.20;;;15.10;99.90;;;;;;5134167;27;20042;-79
2023/09/04 07:13:24;;;;;;;11.85;10.63;;;15.30;99.90;;;;;;5134055;27;20043;-80
2023/09/04 07:15:50;;;;;;;12.90;10.23;;;15.50;99.90;;;;;;5133593;27;20040;-79
2023/09/04 07:18:16;;;;;;;8.95;8.15;;;15.70;99.90;;;;;;5115948;27;20055;-80
2023/09/04 07:20:41;;;;;;;11.05;8.98;;;16.10;99.90;;;;;;5134311;27;20092;-80
2023/09/04 07:23:07;;;;;;;10.38;8.52;;;17.50;99.90;;;;;;5116545;27;20489;-79
2023/09/04 07:25:34;;;;;;;8.52;7.72;;;19.20;99.90;;;;;;5133541;27;20043;-80
2023/09/04 07:28:00;;;;;;;8.30;7.47;;;20.80;99.90;;;;;;5134382;27;20047;-80
2023/09/04 07:30:25;;;;;;;8.18;7.38;;;22.00;99.90;;;;;;5133409;27;20051;-80
2023/09/04 07:32:51;;;;;;;8.48;7.30;;;23.00;99.90;;;;;;5133821;27;20175;-80
2023/09/04 07:35:17;;;;;;;8.15;7.35;;;23.80;99.90;;;;;;5115831;27;20043;-80
2023/09/04 07:37:42;;;;;;;7.85;7.05;;;24.50;99.90;;;;;;5133904;27;20153;-79
2023/09/04 07:40:08;;;;;;;6.82;6.22;;;24.90;99.90;;;;;;5133952;27;20050;-79
2023/09/04 07:42:34;;;;;;;7.65;6.90;;;25.60;99.90;;;;;;5081915;27;20062;-82
2023/09/04 07:45:00;;;;;;;9.77;6.82;;;26.10;99.90;;;;;;5098711;27;20042;-82
2023/09/04 07:47:26;;;;;;;7.78;5.93;;;26.70;99.90;;;;;;5116008;27;20047;-81
2023/09/04 07:49:53;;;;;;;6.88;6.18;;;27.20;99.90;;;;;;5115311;27;20114;-81
2023/09/04 07:52:20;;;;;;;6.60;5.72;;;27.70;99.90;;;;;;5133446;27;20050;-81
2023/09/04 07:54:47;;;;;;;8.85;5.97;;;27.90;98.80;;;;;;5133644;27;20050;-82
2023/09/04 07:57:13;;;;;;;6.40;5.80;;;28.10;98.10;;;;;;5133365;27;20050;-81
2023/09/04 07:59:39;;;;;;;5.35;4.93;;;28.30;97.70;;;;;;5115084;27;20043;-81
2023/09/04 08:02:04;;;;;;;6.22;5.72;;;28.70;97.40;;;;;;5115213;28;20043;-80
2023/09/04 08:04:30;;;;;;;6.85;6.15;;;29.00;96.80;;;;;;5133877;27;20043;-82
2023/09/04 08:06:56;;;;;;;7.15;6.55;;;29.10;96.20;;;;;;5115512;27;20469;-81
2023/09/04 08:09:22;;;;;;;7.13;6.53;;;29.30;95.80;;;;;;5115443;27;20057;-81
2023/09/04 08:11:48;;;;;;;6.20;5.80;;;29.70;95.50;;;;;;5081726;27;20046;-81
2023/09/04 08:14:14;;;;;;;9.77;6.47;;;29.90;95.10;;;;;;5133338;27;20456;-81
2023/09/04 08:16:39;;;;;;;6.43;5.90;;;30.20;94.90;;;;;;5133454;28;20150;-78
2023/09/04 08:19:05;;;;;;;6.47;5.35;;;30.30;94.30;;;;;;5133271;28;20036;-80
2023/09/04 08:21:31;;;;;;;5.78;5.28;;;30.60;94.10;;;;;;5114931;28;20043;-80
2023/09/04 08:23:57;;;;;;;7.63;5.65;;;30.40;93.30;;;;;;5133221;28;20039;-81
2023/09/04 08:26:23;;;;;;;6.03;5.53;;;30.40;93.20;;;;;;5115538;27;20047;-81
2023/09/04 08:28:48;;;;;;;5.50;5.00;;;30.40;93.10;;;;;;5119266;27;20051;-80
2023/09/04 08:31:14;;;;;;;6.47;4.50;;;30.50;93.20;;;;;;5137367;27;20040;-81
2023/09/04 08:33:40;;;;;;;5.70;4.50;;;30.70;93.00;;;;;;5137973;27;20143;-82
2023/09/04 08:36:06;;;;;;;5.38;4.43;;;30.90;92.80;;;;;;5137454;27;20481;-81
2023/09/04 08:38:31;;;;;;;4.72;4.30;;;31.00;92.70;;;;;;5136782;27;20518;-82
2023/09/04 08:41:04;;;;;;;4.97;4.47;;;31.10;92.60;;;;;;5137146;27;20509;-81
2023/09/04 08:43:31;;;;;;;4.75;4.35;;;31.10;92.00;;;;;;5118920;27;20435;-83
2023/09/04 08:46:02;;;;;;;6.72;3.95;;;31.10;91.90;;;;;;5137272;27;20054;-82
2023/09/04 08:48:30;;;;;;;4.28;3.78;;;31.30;91.60;;;;;;5119367;27;20122;-80
2023/09/04 08:50:56;;;;;;;8.10;3.80;;;31.30;91.40;;;;;;5136930;27;20043;-82
2023/09/04 08:53:22;;;;;;;5.38;4.18;;;31.20;91.30;;;;;;5137093;27;20425;-83
2023/09/04 08:55:49;;;;;;;4.57;4.28;;;31.30;91.20;;;;;;5136718;27;20497;-82
2023/09/04 08:58:16;;;;;;;4.93;3.60;;;31.50;91.10;;;;;;5137111;27;20047;-83
2023/09/04 09:00:42;;;;;;;4.65;3.58;;;31.40;90.70;;;;;;5136888;27;20114;-82
2023/09/04 09:03:09;;;;;;;3.60;3.28;;;31.30;90.70;;;;;;5136853;27;20502;-82
2023/09/04 09:05:36;;;;;;;4.72;3.30;;;31.20;90.40;;;;;;5137035;27;20152;-81
2023/09/04 09:08:04;;;;;;;5.72;3.50;;;31.10;90.20;;;;;;5118709;27;20114;-83
2023/09/04 09:10:30;;;;;;;4.25;3.85;;;31.40;90.40;;;;;;5118748;27;20062;-80
2023/09/04 09:12:56;;;;;;;4.00;3.42;;;31.50;90.10;;;;;;5136631;27;20506;-83
2023/09/04 09:15:22;;;;;;;3.58;3.28;;;31.50;89.90;;;;;;5136867;27;20058;-81
2023/09/04 09:17:53;;;;;;;3.88;3.58;;;31.40;89.80;;;;;;5136672;27;20035;-77
2023/09/04 09:20:38;;;;;;;4.82;3.35;;;31.10;89.00;;;;;;5136791;27;20082;-81
2023/09/04 09:23:05;;;;;;;3.55;3.25;;;31.20;88.80;;;;;;5117960;27;20075;-81
2023/09/04 09:25:32;;;;;;;4.15;3.85;;;31.30;89.10;;;;;;5118745;27;20051;-83
2023/09/04 09:28:00;;;;;;;3.90;3.55;;;31.20;88.50;;;;;;5136591;27;20049;-81
2023/09/04 09:30:36;;;;;;;3.20;3.00;;;31.00;88.10;;;;;;5136519;27;20050;-84
2023/09/04 09:33:15;;;;;;;3.47;3.17;;;31.20;88.30;;;;;;5136588;27;20095;-81
2023/09/04 09:35:41;;;;;;;4.32;3.55;;;31.40;87.50;;;;;;5118147;27;20043;-82
2023/09/04 09:38:07;;;;;;;3.40;3.10;;;31.00;86.70;;;;;;5136007;27;20051;-83
2023/09/04 09:40:33;;;;;;;2.72;2.53;;;30.90;87.10;;;;;;5136813;27;20126;-82
2023/09/04 09:43:00;;;;;;;4.20;2.40;;;30.90;87.00;;;;;;5101356;27;20043;-80
2023/09/04 09:45:33;;;;;;;3.83;3.10;;;31.20;87.20;;;;;;5136468;27;20044;-80
2023/09/04 09:48:06;;;;;;;2.90;2.70;;;31.10;86.20;;;;;;5136446;27;20051;-80
2023/09/04 09:50:32;;;;;;;2.65;2.42;;;30.90;86.20;;;;;;5135985;27;20074;-80
2023/09/04 09:53:00;;;;;;;3.38;2.80;;;31.10;86.60;;;;;;5136058;27;20046;-81
2023/09/04 09:55:28;;;;;;;3.60;2.78;;;31.10;86.80;;;;;;5136570;27;20057;-82
2023/09/04 09:57:55;;;;;;;2.90;2.60;;;31.20;86.20;;;;;;5136462;27;20054;-81
2023/09/04 10:00:21;;;;;;;3.22;2.92;;;31.20;86.10;;;;;;5117953;27;20069;-82
2023/09/04 10:02:47;;;;;;;3.30;3.00;;;31.10;85.60;;;;;;5136787;27;20540;-81
2023/09/04 10:05:13;;;;;;;3.75;3.22;;;31.10;85.00;;;;;;5136099;27;20091;-80
2023/09/04 10:07:40;;;;;;;4.53;2.28;;;30.70;84.90;;;;;;5135915;27;20043;-81
2023/09/04 10:10:07;;;;;;;3.25;2.80;;;30.90;85.90;;;;;;5135420;27;20420;-82
2023/09/04 10:12:44;;;;;;;5.05;3.13;;;31.40;85.70;;;;;;5135673;27;20121;-81
2023/09/04 10:15:11;;;;;;;3.00;2.70;;;31.30;84.70;;;;;;5136092;27;20039;-81
2023/09/04 10:17:43;;;;;;;2.05;1.95;;;31.20;84.90;;;;;;5135403;27;20035;-81
2023/09/04 10:20:10;;;;;;;2.27;2.07;;;31.60;84.80;;;;;;5136240;27;20069;-81
2023/09/04 10:22:47;;;;;;;2.97;2.20;;;31.60;84.50;;;;;;5117397;27;20066;-80
2023/09/04 10:25:21;;;;;;;3.22;2.13;;;32.10;84.10;;;;;;5136029;27;20047;-82
2023/09/04 10:27:55;;;;;;;2.72;2.20;;;32.40;83.90;;;;;;5135247;27;20122;-79
2023/09/04 10:30:24;;;;;;;2.58;2.28;;;32.10;82.90;;;;;;5135720;27;20058;-81
2023/09/04 10:32:54;;;;;;;4.97;2.38;;;32.30;83.80;;;;;;5135495;27;20051;-80
2023/09/04 10:35:20;;;;;;;1.83;1.73;;;32.50;83.30;;;;;;5135398;27;20043;-81
2023/09/04 10:37:48;;;;;;;4.03;2.00;;;32.60;83.30;;;;;;5135960;27;20055;-82
2023/09/04 10:40:15;;;;;;;3.63;2.10;;;32.60;83.20;;;;;;5135803;27;20094;-82
2023/09/04 10:42:41;;;;;;;2.42;2.00;;;32.30;82.40;;;;;;5136156;27;20055;-89
2023/09/04 10:45:15;;;;;;;2.53;2.13;;;32.40;82.60;;;;;;5117160;27;20043;-82
2023/09/04 10:47:46;;;;;;;2.95;1.98;;;32.20;82.00;;;;;;5134781;27;20046;-83
2023/09/04 10:50:27;;;;;;;2.15;1.95;;;31.50;82.20;;;;;;5134699;27;20078;-82
2023/09/04 10:52:54;;;;;;;6.15;2.05;;;30.50;83.20;;;;;;5135088;27;20126;-83
2023/09/04 10:55:20;;;;;;;3.13;1.77;;;29.40;85.00;;;;;;5117919;27;20078;-83
2023/09/04 10:57:56;;;;;;;1.88;1.77;;;28.50;84.70;;;;;;5125505;27;20479;-82
2023/09/04 11:00:37;;;;;;;3.85;2.20;;;27.90;85.80;;;;;;5142890;27;20047;-82
2023/09/04 11:03:21;;;;;;;1.92;1.80;;;27.30;86.70;;;;;;5137235;27;20050;-83
2023/09/04 11:06:02;;;;;;;3.03;2.17;;;26.80;87.60;;;;;;5134997;27;20467;-81
2023/09/04 11:08:32;;;;;;;2.60;2.38;;;26.50;87.80;;;;;;5134419;27;20448;-80
2023/09/04 11:11:05;;;;;;;5.05;2.88;;;26.30;88.60;;;;;;5134805;27;20043;-80
2023/09/04 11:13:38;;;;;;;1.90;1.80;;;26.10;89.20;;;;;;5134198;27;20043;-81
2023/09/04 11:16:06;;;;;;;2.47;1.85;;;26.00;87.80;;;;;;5134344;27;20050;-82
2023/09/04 11:18:34;;;;;;;4.25;2.25;;;25.90;88.10;;;;;;5134372;27;20131;-81
2023/09/04 11:21:00;;;;;;;2.33;2.13;;;25.90;88.80;;;;;;5134540;27;20053;-79
2023/09/04 11:23:28;;;;;;;2.90;2.10;;;25.60;89.00;;;;;;5134292;27;20126;-81
2023/09/04 11:25:55;;;;;;;3.72;1.98;;;25.70;89.60;;;;;;5134057;27;20473;-81
2023/09/04 11:28:23;;;;;;;1.92;1.67;;;25.60;89.50;;;;;;5134576;27;20104;-81
2023/09/04 11:30:59;;;;;;;2.65;2.42;;;25.60;89.20;;;;;;5134008;27;20075;-82
2023/09/04 11:33:33;;;;;;;5.32;2.50;;;25.60;89.70;;;;;;5134356;27;20054;-83
2023/09/04 11:36:04;;;;;;;2.35;2.03;;;25.60;90.10;;;;;;5134027;27;20068;-82
2023/09/04 11:38:32;;;;;;;4.35;2.22;;;25.60;90.20;;;;;;5133601;27;20063;-81
2023/09/04 11:40:58;;;;;;;3.00;1.90;;;25.60;90.50;;;;;;5133661;27;20058;-81
2023/09/04 11:43:25;;;;;;;1.90;1.80;;;25.60;90.80;;;;;;5133947;27;20039;-78
2023/09/04 11:45:55;;;;;;;2.53;2.10;;;25.60;90.30;;;;;;5115869;27;20074;-80
2023/09/04 11:48:25;;;;;;;2.67;2.10;;;25.60;90.30;;;;;;5133903;27;20039;-78
2023/09/04 11:50:53;;;;;;;1.98;1.88;;;25.50;90.20;;;;;;5134255;27;20035;-79
2023/09/04 11:53:19;;;;;;;2.30;2.10;;;25.50;90.40;;;;;;5133645;27;20403;-78
2023/09/04 11:55:46;;;;;;;5.55;2.42;;;25.60;90.30;;;;;;5115253;27;20042;-78
2023/09/04 11:58:12;;;;;;;2.40;2.20;;;25.50;90.20;;;;;;5098886;27;20047;-81
2023/09/04 12:00:39;;;;;;;2.13;1.90;;;25.60;90.60;;;;;;5133948;27;20456;-80
2023/09/04 12:03:05;;;;;;;4.63;2.03;;;25.60;90.30;;;;;;5133989;27;20091;-82
2023/09/04 12:05:32;;;;;;;3.10;1.98;;;25.70;90.20;;;;;;5134309;27;20043;-79
2023/09/04 12:07:58;;;;;;;2.55;1.98;;;25.80;90.30;;;;;;5133677;27;20058;-80
2023/09/04 12:10:24;;;;;;;3.50;2.50;;;25.80;90.30;;;;;;5133731;27;20108;-82
2023/09/04 12:12:52;;;;;;;2.22;2.08;;;25.80;89.90;;;;;;5115005;27;20047;-81
2023/09/04 12:15:27;;;;;;;2.20;2.00;;;25.80;90.10;;;;;;5134032;27;20054;-81
2023/09/04 12:17:53;;;;;;;2.25;2.00;;;25.90;90.20;;;;;;5133903;28;20122;-81
2023/09/04 12:20:19;;;;;;;2.50;2.10;;;25.90;90.30;;;;;;5133531;28;20444;-80
2023/09/04 12:22:55;;;;;;;2.95;2.22;;;25.80;90.20;;;;;;5133173;28;20153;-81
2023/09/04 12:25:22;;;;;;;2.42;2.22;;;25.90;90.50;;;;;;5133163;28;20457;-81
2023/09/04 12:27:48;;;;;;;2.65;2.33;;;25.90;90.30;;;;;;5115808;28;20494;-81
2023/09/04 12:30:14;;;;;;;2.08;1.90;;;26.00;89.70;;;;;;5133883;28;20051;-81
2023/09/04 12:32:40;;;;;;;2.63;1.90;;;26.00;89.60;;;;;;5133540;28;20039;-80
2023/09/04 12:35:06;;;;;;;2.05;1.92;;;26.00;90.10;;;;;;5133489;28;20055;-81
2023/09/04 12:37:36;;;;;;;5.05;2.25;;;26.00;90.10;;;;;;5132946;28;20615;-82
2023/09/04 12:40:08;;;;;;;2.75;2.13;;;26.00;90.30;;;;;;5133246;28;20047;-82
2023/09/04 12:42:33;;;;;;;2.63;1.90;;;26.00;90.20;;;;;;5115842;28;20051;-80
2023/09/04 12:44:59;;;;;;;3.42;2.20;;;26.10;90.00;;;;;;5133297;28;20096;-80